Time;durP1;ratioP1;P1;durP2;ratioP2;P2;SDS_P1;SDS_P2;PMS_P1;PMS_P2;Temp;Humidity;BMP_temperature;BMP_pressure;BME280_temperature;BME280_humidity;BME280_pressure;Samples;Min_cycle;Max_cycle;Signal;HPM_P1;HPM_P2
2022/09/15 00:01:46;;;;;;;;;;;17.60;99.90;;;;;;5073187;28;19925;-72
2022/09/15 00:04:17;;;;;;;;;;;17.60;99.90;;;;;;5073520;28;19929;-72
2022/09/15 00:06:44;;;;;;;;;;;17.60;99.90;;;;;;5064709;28;19924;-72
2022/09/15 00:09:16;;;;;;;;;;;17.60;99.90;;;;;;5081531;28;19924;-72
2022/09/15 00:11:47;;;;;;;;;;;17.60;99.90;;;;;;5078298;28;19969;-72
2022/09/15 00:14:19;;;;;;;;;;;17.60;99.90;;;;;;5065433;28;19930;-72
2022/09/15 00:16:50;;;;;;;;;;;17.60;99.90;;;;;;5056189;28;19944;-72
2022/09/15 00:19:22;;;;;;;;;;;17.60;99.90;;;;;;5067536;28;19924;-72
2022/09/15 00:21:53;;;;;;;;;;;17.60;99.90;;;;;;5083896;28;19924;-72
2022/09/15 00:24:25;;;;;;;;;;;17.60;99.90;;;;;;5072475;28;20436;-72
2022/09/15 00:26:51;;;;;;;;;;;17.60;99.90;;;;;;5086834;28;20178;-72
2022/09/15 00:29:23;;;;;;;;;;;17.60;99.90;;;;;;5079818;28;19932;-72
2022/09/15 00:31:55;;;;;;;;;;;17.50;99.90;;;;;;5084267;28;20017;-72
2022/09/15 00:34:26;;;;;;;;;;;17.50;99.90;;;;;;5064856;28;19928;-72
2022/09/15 00:36:58;;;;;;;;;;;17.50;99.90;;;;;;5069520;28;19924;-72
2022/09/15 00:39:29;;;;;;;;;;;17.50;99.90;;;;;;5088460;28;19928;-72
2022/09/15 00:42:02;;;;;;;;;;;17.50;99.90;;;;;;5066718;28;19924;-72
2022/09/15 00:44:34;;;;;;;;;;;17.50;99.90;;;;;;5066634;28;19928;-72
2022/09/15 00:47:05;;;;;;;;;;;17.50;99.90;;;;;;5070612;28;19928;-72
2022/09/15 00:49:38;;;;;;;;;;;17.60;99.90;;;;;;5060588;28;20280;-72
2022/09/15 00:52:16;;;;;;;;;;;17.60;99.90;;;;;;5064273;28;19974;-72
2022/09/15 00:54:54;;;;;;;;;;;17.60;99.90;;;;;;5049136;28;19928;-72
2022/09/15 00:57:28;;;;;;;;;;;17.60;99.90;;;;;;5079940;28;19970;-72
2022/09/15 00:59:56;;;;;;;;;;;17.60;99.90;;;;;;5062888;28;20010;-72
2022/09/15 01:02:30;;;;;;;;;;;17.60;99.90;;;;;;5081037;28;19959;-72
2022/09/15 01:05:03;;;;;;;;;;;17.70;99.90;;;;;;5078444;28;20356;-71
2022/09/15 01:07:35;;;;;;;;;;;17.80;99.90;;;;;;5078150;28;20414;-72
2022/09/15 01:10:14;;;;;;;;;;;17.80;99.90;;;;;;5045994;28;19990;-72
2022/09/15 01:12:45;;;;;;;;;;;17.80;99.90;;;;;;5061855;28;19932;-72
2022/09/15 01:15:17;;;;;;;;;;;17.80;99.90;;;;;;5068753;28;19994;-71
2022/09/15 01:17:59;;;;;;;;;;;17.80;99.90;;;;;;5085980;28;19924;-72
2022/09/15 01:20:41;;;;;;;;;;;17.80;99.90;;;;;;5079440;28;19951;-72
2022/09/15 01:23:28;;;;;;;;;;;17.80;99.90;;;;;;5053651;28;20354;-72
2022/09/15 01:26:20;;;;;;;;;;;17.80;99.90;;;;;;5077949;28;19932;-72
2022/09/15 01:29:05;;;;;;;;;;;17.80;99.90;;;;;;5081579;28;19928;-72
2022/09/15 01:33:02;;;;;;;;;;;17.80;99.90;;;;;;5066430;28;19928;-72
2022/09/15 01:34:35;;;;;;;;;;;17.80;99.90;;;;;;5082972;28;20284;-72
2022/09/15 01:37:11;;;;;;;;;;;17.70;99.90;;;;;;5062767;28;19993;-72
2022/09/15 01:39:45;;;;;;;;;;;17.70;99.90;;;;;;5078021;28;19932;-72
2022/09/15 01:42:17;;;;;;;;;;;17.70;99.90;;;;;;5071164;28;19924;-72
2022/09/15 01:44:53;;;;;;;;;;;17.60;99.90;;;;;;5082327;28;19974;-72
2022/09/15 01:47:27;;;;;;;;;;;17.60;99.90;;;;;;5068848;28;19981;-71
2022/09/15 01:50:06;;;;;;;;;;;17.60;99.90;;;;;;5065076;28;20328;-72
2022/09/15 01:52:41;;;;;;;;;;;17.50;99.90;;;;;;5069822;28;20013;-72
2022/09/15 01:55:18;;;;;;;;;;;17.50;99.90;;;;;;5076520;28;19924;-72
2022/09/15 01:57:49;;;;;;;;;;;17.50;99.90;;;;;;5078058;28;19932;-72
2022/09/15 02:00:21;;;;;;;;;;;17.50;99.90;;;;;;5080666;28;19928;-72
2022/09/15 02:02:59;;;;;;;;;;;17.40;99.90;;;;;;5083103;28;20468;-72
2022/09/15 02:05:41;;;;;;;;;;;17.40;99.90;;;;;;5076446;28;19924;-72
2022/09/15 02:08:23;;;;;;;;;;;17.40;99.90;;;;;;5050556;28;20440;-71
2022/09/15 02:11:03;;;;;;;;;;;17.40;99.90;;;;;;5076868;28;19924;-72
2022/09/15 02:13:47;;;;;;;;;;;17.40;99.90;;;;;;5071340;28;19982;-72
2022/09/15 02:16:19;;;;;;;;;;;17.30;99.90;;;;;;5064298;28;19932;-72
2022/09/15 02:18:50;;;;;;;;;;;17.40;99.90;;;;;;5065945;28;20006;-72
2022/09/15 02:21:28;;;;;;;;;;;17.30;99.90;;;;;;5077260;28;19928;-72
2022/09/15 02:24:04;;;;;;;;;;;17.30;99.90;;;;;;5065413;28;20013;-72
2022/09/15 02:26:37;;;;;;;;;;;17.30;99.90;;;;;;5063851;28;19978;-71
2022/09/15 02:29:11;;;;;;;;;;;17.30;99.90;;;;;;5078198;28;20318;-72
2022/09/15 02:31:44;;;;;;;;;;;17.20;99.90;;;;;;5045637;28;19936;-72
2022/09/15 02:34:13;;;;;;;;;;;17.20;99.90;;;;;;5082563;28;19929;-72
2022/09/15 02:36:41;;;;;;;;;;;17.20;99.90;;;;;;5053008;28;20351;-72
2022/09/15 02:39:16;;;;;;;;;;;17.10;99.90;;;;;;5077867;28;19983;-72
2022/09/15 02:41:48;;;;;;;;;;;17.20;99.90;;;;;;5079140;28;19927;-72
2022/09/15 02:44:19;;;;;;;;;;;17.20;99.90;;;;;;5068050;28;19994;-72
2022/09/15 02:46:51;;;;;;;;;;;17.20;99.90;;;;;;5074831;28;20395;-71
2022/09/15 02:49:18;;;;;;;;;;;17.10;99.90;;;;;;5074228;28;19925;-72
2022/09/15 02:51:50;;;;;;;;;;;17.10;99.90;;;;;;5050351;28;19924;-72
2022/09/15 02:54:22;;;;;;;;;;;17.10;99.90;;;;;;5078794;28;20685;-72
2022/09/15 02:56:53;;;;;;;;;;;17.10;99.90;;;;;;5079057;28;20458;-72
2022/09/15 02:59:25;;;;;;;;;;;17.00;99.90;;;;;;5073749;28;19924;-72
2022/09/15 03:01:57;;;;;;;;;;;17.10;99.90;;;;;;5056118;28;20272;-72
2022/09/15 03:04:29;;;;;;;;;;;17.10;99.90;;;;;;5054533;28;20308;-72
2022/09/15 03:07:00;;;;;;;;;;;17.10;99.90;;;;;;5073221;28;20403;-71
2022/09/15 03:09:32;;;;;;;;;;;17.00;99.90;;;;;;5076964;28;19924;-72
2022/09/15 03:12:04;;;;;;;;;;;17.00;99.90;;;;;;5065022;28;19970;-71
2022/09/15 03:14:36;;;;;;;;;;;17.00;99.90;;;;;;5066072;28;19928;-71
2022/09/15 03:17:07;;;;;;;;;;;17.00;99.90;;;;;;5078987;28;19924;-72
2022/09/15 03:19:39;;;;;;;;;;;16.90;99.90;;;;;;5066592;28;20272;-72
2022/09/15 03:22:11;;;;;;;;;;;17.00;99.90;;;;;;5073107;28;19933;-72
2022/09/15 03:24:42;;;;;;;;;;;16.90;99.90;;;;;;5061776;28;19959;-73
2022/09/15 03:27:14;;;;;;;;;;;16.90;99.90;;;;;;5064306;28;19928;-72
2022/09/15 03:29:40;;;;;;;;;;;16.90;99.90;;;;;;5065285;28;19924;-73
2022/09/15 03:32:12;;;;;;;;;;;16.90;99.90;;;;;;5063753;28;19931;-72
2022/09/15 03:34:44;;;;;;;;;;;16.90;99.90;;;;;;5076323;28;19932;-72
2022/09/15 03:37:16;;;;;;;;;;;16.90;99.90;;;;;;5065679;28;20398;-72
2022/09/15 03:39:47;;;;;;;;;;;16.90;99.90;;;;;;5065305;28;20445;-72
2022/09/15 03:42:19;;;;;;;;;;;16.90;99.90;;;;;;5073811;28;19978;-73
2022/09/15 03:44:51;;;;;;;;;;;16.90;99.90;;;;;;5083786;28;19928;-72
2022/09/15 03:47:22;;;;;;;;;;;16.90;99.90;;;;;;5060343;28;19929;-72
2022/09/15 03:49:54;;;;;;;;;;;16.90;99.90;;;;;;5082880;28;19928;-72
2022/09/15 03:52:30;;;;;;;;;;;17.00;99.90;;;;;;5061266;28;20294;-72
2022/09/15 03:55:01;;;;;;;;;;;17.00;99.90;;;;;;5065452;28;19924;-72
2022/09/15 03:57:33;;;;;;;;;;;17.00;99.90;;;;;;5061031;28;19935;-72
2022/09/15 04:00:07;;;;;;;;;;;17.00;99.90;;;;;;5068151;28;20588;-73
2022/09/15 04:02:38;;;;;;;;;;;17.00;99.90;;;;;;5059848;28;19925;-72
2022/09/15 04:05:12;;;;;;;;;;;17.00;99.90;;;;;;5057796;28;19970;-73
2022/09/15 04:07:43;;;;;;;;;;;17.00;99.90;;;;;;5070613;28;19986;-71
2022/09/15 04:10:15;;;;;;;;;;;17.00;99.90;;;;;;5080280;28;19928;-73
2022/09/15 04:12:47;;;;;;;;;;;17.00;99.90;;;;;;5076755;28;19935;-72
2022/09/15 04:15:13;;;;;;;;;;;17.00;99.90;;;;;;5058280;28;20357;-75
2022/09/15 04:17:40;;;;;;;;;;;17.00;99.90;;;;;;5058237;28;19928;-72
2022/09/15 04:20:12;;;;;;;;;;;17.00;99.90;;;;;;5041674;28;19929;-72
2022/09/15 04:22:43;;;;;;;;;;;17.00;99.90;;;;;;5062813;28;19928;-72
2022/09/15 04:25:15;;;;;;;;;;;17.00;99.90;;;;;;5062512;28;19986;-73
2022/09/15 04:27:47;;;;;;;;;;;17.00;99.90;;;;;;5054468;28;19925;-72
2022/09/15 04:30:14;;;;;;;;;;;17.00;99.90;;;;;;5068508;28;19932;-72
2022/09/15 04:32:45;;;;;;;;;;;17.00;99.90;;;;;;5059771;28;19924;-72
2022/09/15 04:35:17;;;;;;;;;;;16.90;99.90;;;;;;5067665;28;19932;-72
2022/09/15 04:37:44;;;;;;;;;;;16.90;99.90;;;;;;5062041;28;19986;-72
2022/09/15 04:40:15;;;;;;;;;;;16.90;99.90;;;;;;5074309;28;20353;-72
2022/09/15 04:42:47;;;;;;;;;;;16.90;99.90;;;;;;5070536;28;19978;-72
2022/09/15 04:45:19;;;;;;;;;;;17.00;99.90;;;;;;5085467;28;20448;-72
2022/09/15 04:47:52;;;;;;;;;;;16.90;99.90;;;;;;5078990;28;19932;-71
2022/09/15 04:50:23;;;;;;;;;;;17.00;99.90;;;;;;5076887;28;19990;-72
2022/09/15 04:53:00;;;;;;;;;;;17.00;99.90;;;;;;5081687;28;19924;-72
2022/09/15 04:55:32;;;;;;;;;;;17.00;99.90;;;;;;5049829;28;19943;-72
2022/09/15 04:58:04;;;;;;;;;;;17.00;99.90;;;;;;5068149;28;19935;-72
2022/09/15 05:00:41;;;;;;;;;;;17.00;99.90;;;;;;5082459;28;20347;-72
2022/09/15 05:03:13;;;;;;;;;;;17.00;99.90;;;;;;5039647;28;20500;-71
2022/09/15 05:05:46;;;;;;;;;;;17.00;99.90;;;;;;5080111;28;20398;-72
2022/09/15 05:08:18;;;;;;;;;;;17.00;99.90;;;;;;5062395;28;19924;-72
2022/09/15 05:10:44;;;;;;;;;;;17.00;99.90;;;;;;5068383;28;20378;-72
2022/09/15 05:13:16;;;;;;;;;;;17.00;99.90;;;;;;5047109;28;19987;-72
2022/09/15 05:15:48;;;;;;;;;;;17.00;99.90;;;;;;5067348;28;19974;-72
2022/09/15 05:18:19;;;;;;;;;;;17.00;99.90;;;;;;5062959;28;19924;-72
2022/09/15 05:20:56;;;;;;;;;;;17.00;99.90;;;;;;5065398;28;20402;-72
2022/09/15 05:23:28;;;;;;;;;;;17.00;99.90;;;;;;5077876;28;19924;-72
2022/09/15 05:26:00;;;;;;;;;;;17.00;99.90;;;;;;5076003;28;19928;-72
2022/09/15 05:28:33;;;;;;;;;;;17.00;99.90;;;;;;5044226;28;20306;-72
2022/09/15 05:30:59;;;;;;;;;;;17.00;99.90;;;;;;5065592;28;19924;-72
2022/09/15 05:33:31;;;;;;;;;;;17.00;99.90;;;;;;5072555;28;19982;-71
2022/09/15 05:36:03;;;;;;;;;;;17.00;99.90;;;;;;5041448;28;19928;-72
2022/09/15 05:38:34;;;;;;;;;;;17.00;99.90;;;;;;5077567;28;19990;-72
2022/09/15 05:41:07;;;;;;;;;;;17.10;99.90;;;;;;5072415;28;19924;-73
2022/09/15 05:43:39;;;;;;;;;;;17.00;99.90;;;;;;5076887;28;19936;-72
2022/09/15 05:46:06;;;;;;;;;;;17.00;99.90;;;;;;5070109;28;19928;-72
2022/09/15 05:48:33;;;;;;;;;;;17.10;99.90;;;;;;5081456;28;20383;-72
2022/09/15 05:51:05;;;;;;;;;;;17.10;99.90;;;;;;5074733;28;20286;-71
2022/09/15 05:53:37;;;;;;;;;;;17.10;99.90;;;;;;5079191;28;19932;-72
2022/09/15 05:56:10;;;;;;;;;;;17.10;99.90;;;;;;5069486;28;20294;-72
2022/09/15 05:58:43;;;;;;;;;;;17.10;99.90;;;;;;5059587;28;20415;-72
2022/09/15 06:01:12;;;;;;;;;;;17.10;99.90;;;;;;5070876;28;19976;-72
2022/09/15 06:03:44;;;;;;;;;;;17.10;99.90;;;;;;5077370;28;20417;-72
2022/09/15 06:06:11;;;;;;;;;;;17.10;99.90;;;;;;5041800;28;19978;-73
2022/09/15 06:08:44;;;;;;;;;;;17.10;99.90;;;;;;5060081;28;19925;-72
2022/09/15 06:11:17;;;;;;;;;;;17.10;99.90;;;;;;5069112;28;20537;-71
2022/09/15 06:13:49;;;;;;;;;;;17.10;99.90;;;;;;5078080;28;19928;-72
2022/09/15 06:16:22;;;;;;;;;;;17.10;99.90;;;;;;5081380;28;19925;-72
2022/09/15 06:18:49;;;;;;;;;;;17.20;99.90;;;;;;5065078;28;19979;-72
2022/09/15 06:21:22;;;;;;;;;;;17.20;99.90;;;;;;5081241;28;19931;-72
2022/09/15 06:24:02;;;;;;;;;;;17.20;99.90;;;;;;5049839;28;19928;-72
2022/09/15 06:26:33;;;;;;;;;;;17.20;99.90;;;;;;5077504;28;19971;-72
2022/09/15 06:29:05;;;;;;;;;;;17.20;99.90;;;;;;5039681;28;20002;-72
2022/09/15 06:31:37;;;;;;;;;;;17.20;99.90;;;;;;5057498;28;19928;-72
2022/09/15 06:34:10;;;;;;;;;;;17.20;99.90;;;;;;5055907;28;19924;-72
2022/09/15 06:36:41;;;;;;;;;;;17.30;99.90;;;;;;5076388;28;19928;-72
2022/09/15 06:39:08;;;;;;;;;;;17.30;99.90;;;;;;5067732;28;20328;-72
2022/09/15 06:41:40;;;;;;;;;;;17.30;99.90;;;;;;5061789;28;19925;-72
2022/09/15 06:44:17;;;;;;;;;;;17.30;99.90;;;;;;5067056;28;19975;-72
2022/09/15 06:46:49;;;;;;;;;;;17.30;99.90;;;;;;5075413;28;19980;-73
2022/09/15 06:49:20;;;;;;;;;;;17.30;99.90;;;;;;5086924;28;19977;-72
2022/09/15 06:51:52;;;;;;;;;;;17.40;99.90;;;;;;5060688;28;19924;-72
2022/09/15 06:54:23;;;;;;;;;;;17.40;99.90;;;;;;5071988;28;19924;-73
2022/09/15 06:56:55;;;;;;;;;;;17.40;99.90;;;;;;5062653;28;19932;-72
2022/09/15 06:59:26;;;;;;;;;;;17.50;99.90;;;;;;5073670;28;20327;-72
2022/09/15 07:01:58;;;;;;;;;;;17.50;99.90;;;;;;5071294;28;19986;-73
2022/09/15 07:04:30;;;;;;;;;;;17.50;99.90;;;;;;5061130;28;19924;-72
2022/09/15 07:06:56;;;;;;;;;;;17.50;99.90;;;;;;5067659;28;20363;-72
2022/09/15 07:09:23;;;;;;;;;;;17.50;99.90;;;;;;5077537;28;19963;-72
2022/09/15 07:11:50;;;;;;;;;;;17.60;99.90;;;;;;5068572;28;20009;-72
2022/09/15 07:14:16;;;;;;;;;;;17.60;99.90;;;;;;5061011;28;19924;-72
2022/09/15 07:16:48;;;;;;;;;;;17.60;99.90;;;;;;5068509;28;20063;-73
2022/09/15 07:19:20;;;;;;;;;;;17.60;99.90;;;;;;5052010;28;19925;-72
2022/09/15 07:21:46;;;;;;;;;;;17.60;99.90;;;;;;5048478;28;19967;-72
2022/09/15 07:24:18;;;;;;;;;;;17.60;99.90;;;;;;5075620;28;19998;-73
2022/09/15 07:26:50;;;;;;;;;;;17.60;99.90;;;;;;5073443;28;19924;-72
2022/09/15 07:29:22;;;;;;;;;;;17.60;99.90;;;;;;5076831;28;20093;-73
2022/09/15 07:31:54;;;;;;;;;;;17.60;99.90;;;;;;5079398;28;19924;-72
2022/09/15 07:34:25;;;;;;;;;;;17.60;99.90;;;;;;5075648;28;19928;-72
2022/09/15 07:36:57;;;;;;;;;;;17.60;99.90;;;;;;5071202;28;20338;-73
2022/09/15 07:39:29;;;;;;;;;;;17.60;99.90;;;;;;5061311;28;19978;-72
2022/09/15 07:42:01;;;;;;;;;;;17.70;99.90;;;;;;5081970;28;19955;-73
2022/09/15 07:44:32;;;;;;;;;;;17.80;99.90;;;;;;5075166;28;19979;-73
2022/09/15 07:46:59;;;;;;;;;;;17.90;99.90;;;;;;5081117;28;19971;-71
2022/09/15 07:49:30;;;;;;;;;;;18.00;99.90;;;;;;5059388;28;19947;-72
2022/09/15 07:52:02;;;;;;;;;;;18.10;99.90;;;;;;5056983;28;19978;-72
2022/09/15 07:54:33;;;;;;;;;;;18.20;99.90;;;;;;5082086;28;19947;-73
2022/09/15 07:57:05;;;;;;;;;;;18.20;99.90;;;;;;5061187;28;19932;-72
2022/09/15 07:59:37;;;;;;;;;;;18.30;99.90;;;;;;5058871;28;19947;-71
2022/09/15 08:02:16;;;;;;;;;;;18.40;99.90;;;;;;5063503;28;20396;-72
2022/09/15 08:04:47;;;;;;;;;;;18.40;99.90;;;;;;5063760;28;20346;-72
2022/09/15 08:07:19;;;;;;;;;;;18.50;99.90;;;;;;5057770;28;20004;-72
2022/09/15 08:09:50;;;;;;;;;;;18.60;99.90;;;;;;5073657;28;19924;-73
2022/09/15 08:12:22;;;;;;;;;;;18.70;99.90;;;;;;5059191;28;19924;-72
2022/09/15 08:14:48;;;;;;;;;;;18.70;99.90;;;;;;5064711;28;20448;-72
2022/09/15 08:17:20;;;;;;;;;;;18.90;99.90;;;;;;5075094;28;19930;-72
2022/09/15 08:19:51;;;;;;;;;;;19.00;99.90;;;;;;5073767;28;19978;-73
2022/09/15 08:22:23;;;;;;;;;;;19.10;99.90;;;;;;5072440;28;19924;-73
2022/09/15 08:24:55;;;;;;;;;;;19.20;99.90;;;;;;5070329;28;19934;-72
2022/09/15 08:27:22;;;;;;;;;;;19.30;99.90;;;;;;5058806;28;20351;-73
2022/09/15 08:29:53;;;;;;;;;;;19.40;99.90;;;;;;5056174;28;19979;-72
2022/09/15 08:32:25;;;;;;;;;;;19.50;99.90;;;;;;5076532;28;20307;-72
2022/09/15 08:34:56;;;;;;;;;;;19.70;99.90;;;;;;5066815;28;19989;-72
2022/09/15 08:37:28;;;;;;;;;;;19.90;99.90;;;;;;5057388;28;19955;-73
2022/09/15 08:39:54;;;;;;;;;;;20.00;99.90;;;;;;5070473;28;20018;-73
2022/09/15 08:42:22;;;;;;;;;;;20.10;99.90;;;;;;5071227;28;19951;-72
2022/09/15 08:45:20;;;;;;;;;;;20.10;99.90;;;;;;5080719;28;20009;-72
2022/09/15 08:47:57;;;;;;;;;;;20.10;99.90;;;;;;5058515;28;19928;-72
2022/09/15 08:50:39;;;;;;;;;;;20.10;99.90;;;;;;5086734;28;20440;-72
2022/09/15 08:53:14;;;;;;;;;;;20.10;99.90;;;;;;5076185;28;20050;-73
2022/09/15 08:55:45;;;;;;;;;;;20.10;99.90;;;;;;5065804;28;20380;-72
2022/09/15 08:58:21;;;;;;;;;;;19.90;99.90;;;;;;5067395;28;19935;-72
2022/09/15 09:00:51;;;;;;;;;;;19.90;99.90;;;;;;5076244;28;19928;-72
2022/09/15 09:03:38;;;;;;;;;;;19.90;99.90;;;;;;5064760;28;20448;-72
2022/09/15 09:06:19;;;;;;;;;;;19.90;99.90;;;;;;5064911;28;20482;-72
2022/09/15 09:09:09;;;;;;;;;;;20.00;99.90;;;;;;5070367;28;19924;-73
2022/09/15 09:11:44;;;;;;;;;;;20.10;99.90;;;;;;5058055;28;19924;-73
2022/09/15 09:14:30;;;;;;;;;;;20.20;99.90;;;;;;5067281;28;20379;-72
2022/09/15 09:17:20;;;;;;;;;;;20.20;99.90;;;;;;5085519;28;19928;-72
2022/09/15 09:20:15;;;;;;;;;;;20.20;99.90;;;;;;5071564;28;19924;-72
2022/09/15 09:22:48;;;;;;;;;;;20.10;99.90;;;;;;5049688;28;19929;-73
2022/09/15 09:25:17;;;;;;;;;;;20.00;99.90;;;;;;5058439;28;20096;-73
2022/09/15 09:27:49;;;;;;;;;;;19.90;99.90;;;;;;5080658;28;20516;-73
2022/09/15 09:30:21;;;;;;;;;;;20.00;99.90;;;;;;5082117;28;19931;-73
2022/09/15 09:33:12;;;;;;;;;;;20.00;99.90;;;;;;5055868;28;19970;-72
2022/09/15 09:35:45;;;;;;;;;;;20.00;99.90;;;;;;5081428;28;19929;-72
2022/09/15 09:38:19;;;;;;;;;;;19.90;99.90;;;;;;5064099;28;19932;-72
2022/09/15 09:40:51;;;;;;;;;;;19.90;99.90;;;;;;5080251;28;19970;-72
2022/09/15 09:43:23;;;;;;;;;;;19.80;99.90;;;;;;5061617;28;19931;-72
2022/09/15 09:45:55;;;;;;;;;;;19.80;99.90;;;;;;5077965;28;19982;-72
2022/09/15 09:48:27;;;;;;;;;;;19.80;99.90;;;;;;5067348;28;19974;-73
2022/09/15 09:50:59;;;;;;;;;;;19.90;99.90;;;;;;5077240;28;19927;-71
2022/09/15 09:53:31;;;;;;;;;;;19.80;99.90;;;;;;5073880;28;19932;-72
2022/09/15 09:56:35;;;;;;;;;;;19.80;99.90;;;;;;5062439;28;20374;-73
2022/09/15 09:59:27;;;;;;;;;;;19.90;99.90;;;;;;5034941;28;20664;-72
2022/09/15 10:02:05;;;;;;;;;;;20.20;99.90;;;;;;5070657;28;19929;-73
2022/09/15 10:04:37;;;;;;;;;;;20.40;99.90;;;;;;5067647;28;19931;-72
2022/09/15 10:07:08;;;;;;;;;;;20.40;99.90;;;;;;5073740;28;19989;-73
2022/09/15 10:09:48;;;;;;;;;;;20.30;99.90;;;;;;5072462;28;19924;-73
2022/09/15 10:12:28;;;;;;;;;;;20.30;99.90;;;;;;5068012;28;19932;-72
2022/09/15 10:15:01;;;;;;;;;;;20.20;99.90;;;;;;5057188;28;19939;-73
2022/09/15 10:17:44;;;;;;;;;;;20.10;99.90;;;;;;5058642;28;19973;-73
2022/09/15 10:20:31;;;;;;;;;;;20.00;99.90;;;;;;5054083;28;19928;-72
2022/09/15 10:23:15;;;;;;;;;;;19.90;99.90;;;;;;5061537;28;19928;-72
2022/09/15 10:25:42;;;;;;;;;;;19.60;99.90;;;;;;5063354;28;19932;-73
2022/09/15 10:28:15;;;;;;;;;;;19.50;99.90;;;;;;5065061;28;19932;-73
2022/09/15 10:30:59;;;;;;;;;;;19.50;99.90;;;;;;5079808;28;19933;-73
2022/09/15 10:33:33;;;;;;;;;;;19.40;99.90;;;;;;5051440;28;19924;-75
2022/09/15 10:36:10;;;;;;;;;;;19.40;99.90;;;;;;5081713;28;19928;-72
2022/09/15 10:38:43;;;;;;;;;;;19.40;99.90;;;;;;5059618;28;19931;-74
2022/09/15 10:41:26;;;;;;;;;;;19.50;99.90;;;;;;5080620;28;19928;-71
2022/09/15 10:44:10;;;;;;;;;;;19.60;99.90;;;;;;5078061;28;20329;-72
2022/09/15 10:46:44;;;;;;;;;;;19.70;99.90;;;;;;5077860;28;19978;-72
2022/09/15 10:49:16;;;;;;;;;;;19.70;99.90;;;;;;5052041;28;19928;-72
2022/09/15 10:51:46;;;;;;;;;;;19.70;99.90;;;;;;5077645;28;19924;-72
2022/09/15 10:54:15;;;;;;;;;;;19.70;99.90;;;;;;5078556;28;19928;-72
2022/09/15 10:56:48;;;;;;;;;;;19.70;99.90;;;;;;5055251;28;19933;-71
2022/09/15 10:59:14;;;;;;;;;;;19.70;99.90;;;;;;5051489;28;19928;-73
2022/09/15 11:01:51;;;;;;;;;;;19.80;99.90;;;;;;5070544;28;20463;-73
2022/09/15 11:04:23;;;;;;;;;;;19.90;99.90;;;;;;5062323;28;20572;-72
2022/09/15 11:06:58;;;;;;;;;;;19.90;99.90;;;;;;5057573;28;19928;-73
2022/09/15 11:09:44;;;;;;;;;;;19.90;99.90;;;;;;5047504;28;19928;-72
2022/09/15 11:12:21;;;;;;;;;;;20.00;99.90;;;;;;5072785;28;20574;-73
2022/09/15 11:14:59;;;;;;;;;;;20.10;99.90;;;;;;5068863;28;19970;-73
2022/09/15 11:17:30;;;;;;;;;;;20.10;99.90;;;;;;5063268;28;20677;-73
2022/09/15 11:20:22;;;;;;;;;;;20.10;99.90;;;;;;5062077;28;19982;-73
2022/09/15 11:23:13;;;;;;;;;;;20.00;99.90;;;;;;5053975;28;19940;-72
2022/09/15 11:25:43;;;;;;;;;;;19.90;99.90;;;;;;5053005;28;20520;-73
2022/09/15 11:28:21;;;;;;;;;;;19.60;99.90;;;;;;5064634;28;20440;-72
2022/09/15 11:31:08;;;;;;;;;;;19.40;99.90;;;;;;5051142;28;20055;-73
2022/09/15 11:33:46;;;;;;;;;;;19.40;99.90;;;;;;5034504;28;19937;-73
2022/09/15 11:36:14;;;;;;;;;;;19.30;99.90;;;;;;5049522;28;19979;-73
2022/09/15 11:39:02;;;;;;;;;;;19.30;99.90;;;;;;5058077;28;19932;-73
2022/09/15 11:41:47;;;;;;;;;;;19.30;99.90;;;;;;5057914;28;19935;-73
2022/09/15 11:44:18;;;;;;;;;;;19.30;99.90;;;;;;5060364;28;19924;-73
2022/09/15 11:46:51;;;;;;;;;;;19.30;99.90;;;;;;5049269;28;19932;-76
2022/09/15 11:49:27;;;;;;;;;;;19.20;99.90;;;;;;5082324;28;19978;-73
2022/09/15 11:52:05;;;;;;;;;;;19.20;99.90;;;;;;5060457;28;19924;-71
2022/09/15 11:54:49;;;;;;;;;;;19.20;99.90;;;;;;5079507;28;19929;-73
2022/09/15 11:57:27;;;;;;;;;;;19.00;99.90;;;;;;5054391;28;19925;-72
2022/09/15 12:00:05;;;;;;;;;;;18.90;99.90;;;;;;5069874;28;20384;-73
2022/09/15 12:02:32;;;;;;;;;;;18.70;99.90;;;;;;5058757;28;20019;-74
2022/09/15 12:05:04;;;;;;;;;;;18.70;99.90;;;;;;5049501;28;19932;-73
2022/09/15 12:07:47;;;;;;;;;;;18.70;99.90;;;;;;5049747;28;19948;-74
2022/09/15 12:10:30;;;;;;;;;;;18.70;99.90;;;;;;5066296;28;20295;-73
2022/09/15 12:12:58;;;;;;;;;;;18.80;99.90;;;;;;5069381;28;19944;-72
2022/09/15 12:15:30;;;;;;;;;;;18.80;99.90;;;;;;5047546;28;19986;-73
2022/09/15 12:18:24;;;;;;;;;;;18.90;99.90;;;;;;5056678;28;20391;-74
2022/09/15 12:21:17;;;;;;;;;;;18.80;99.90;;;;;;5056853;28;19929;-73
2022/09/15 12:23:58;;;;;;;;;;;18.70;99.90;;;;;;5064803;28;19982;-73
2022/09/15 12:26:25;;;;;;;;;;;18.70;99.90;;;;;;5066799;28;19928;-73
2022/09/15 12:28:57;;;;;;;;;;;18.80;99.90;;;;;;5061492;28;19982;-73
2022/09/15 12:31:36;;;;;;;;;;;19.00;99.90;;;;;;5062076;28;19979;-71
2022/09/15 12:34:20;;;;;;;;;;;19.20;99.90;;;;;;5063504;28;19939;-72
2022/09/15 12:36:53;;;;;;;;;;;19.40;99.90;;;;;;5049218;28;19932;-73
2022/09/15 12:39:21;;;;;;;;;;;19.40;99.90;;;;;;5064356;28;19925;-73
2022/09/15 12:41:54;;;;;;;;;;;19.50;99.90;;;;;;5062390;28;20754;-70
2022/09/15 12:44:39;;;;;;;;;;;19.60;99.90;;;;;;5049323;28;20435;-72
2022/09/15 12:47:30;;;;;;;;;;;19.60;99.90;;;;;;5061172;28;19932;-72
2022/09/15 12:50:08;;;;;;;;;;;19.60;99.90;;;;;;5064534;28;19925;-71
2022/09/15 12:52:41;;;;;;;;;;;19.70;99.90;;;;;;5060116;28;19928;-71
2022/09/15 12:55:18;;;;;;;;;;;19.80;99.90;;;;;;5063780;28;19931;-72
2022/09/15 12:57:54;;;;;;;;;;;20.10;99.90;;;;;;5055428;28;20024;-73
2022/09/15 13:00:27;;;;;;;;;;;20.20;99.90;;;;;;5035349;28;20638;-73
2022/09/15 13:03:00;;;;;;;;;;;20.30;99.90;;;;;;5065130;28;20652;-72
2022/09/15 13:05:41;;;;;;;;;;;20.20;99.90;;;;;;5076165;28;19929;-73
2022/09/15 13:08:22;;;;;;;;;;;20.00;99.90;;;;;;5063467;28;19925;-72
2022/09/15 13:10:59;;;;;;;;;;;19.90;99.90;;;;;;5083042;28;19932;-72
2022/09/15 13:13:45;;;;;;;;;;;19.70;99.90;;;;;;5069945;28;19928;-72
2022/09/15 13:16:29;;;;;;;;;;;19.50;99.90;;;;;;5061882;28;19932;-72
2022/09/15 13:19:11;;;;;;;;;;;19.30;99.90;;;;;;5069028;28;19973;-73
2022/09/15 13:21:46;;;;;;;;;;;19.20;99.90;;;;;;5050853;28;20461;-73
2022/09/15 13:24:21;;;;;;;;;;;19.10;99.90;;;;;;5074940;28;19928;-72
2022/09/15 13:26:50;;;;;;;;;;;19.00;99.90;;;;;;5066575;28;19928;-73
2022/09/15 13:29:23;;;;;;;;;;;18.60;99.90;;;;;;5059540;28;19986;-73
2022/09/15 13:31:54;;;;;;;;;;;18.40;99.90;;;;;;5074099;28;19932;-72
2022/09/15 13:34:34;;;;;;;;;;;18.20;99.90;;;;;;5080988;28;19932;-73
2022/09/15 13:37:24;;;;;;;;;;;17.90;99.90;;;;;;5071044;28;19928;-73
2022/09/15 13:40:14;;;;;;;;;;;17.80;99.90;;;;;;5071651;28;19925;-72
2022/09/15 13:42:46;;;;;;;;;;;17.60;99.90;;;;;;5075194;28;19925;-73
2022/09/15 13:45:19;;;;;;;;;;;17.50;99.90;;;;;;5042188;28;21303;-74
2022/09/15 13:48:09;;;;;;;;;;;17.40;99.90;;;;;;5074441;28;19951;-73
2022/09/15 13:50:45;;;;;;;;;;;17.40;99.90;;;;;;5047031;28;19933;-73
2022/09/15 13:53:20;;;;;;;;;;;17.50;99.90;;;;;;5062175;28;19954;-73
2022/09/15 13:55:55;;;;;;;;;;;17.50;99.90;;;;;;5054601;28;20364;-73
2022/09/15 13:58:27;;;;;;;;;;;17.70;99.90;;;;;;5066713;28;19935;-73
2022/09/15 14:01:01;;;;;;;;;;;17.80;99.90;;;;;;5078976;28;19932;-73
2022/09/15 14:03:47;;;;;;;;;;;17.90;99.90;;;;;;5057739;28;20017;-73
2022/09/15 14:06:21;;;;;;;;;;;18.10;99.90;;;;;;5076140;28;19931;-73
2022/09/15 14:08:55;;;;;;;;;;;18.20;99.90;;;;;;5064977;28;19936;-71
2022/09/15 14:11:31;;;;;;;;;;;18.10;99.90;;;;;;5055087;28;19924;-73
2022/09/15 14:14:07;;;;;;;;;;;18.20;99.90;;;;;;5054587;28;19975;-73
2022/09/15 14:16:39;;;;;;;;;;;18.10;99.90;;;;;;5083637;28;20346;-71
2022/09/15 14:19:20;;;;;;;;;;;18.00;99.90;;;;;;5070612;28;19936;-73
2022/09/15 14:21:52;;;;;;;;;;;17.90;99.90;;;;;;5065413;28;19928;-73
2022/09/15 14:24:28;;;;;;;;;;;17.80;99.90;;;;;;5064756;28;19959;-73
2022/09/15 14:27:07;;;;;;;;;;;17.70;99.90;;;;;;5062225;28;19952;-73
2022/09/15 14:29:37;;;;;;;;;;;17.60;99.90;;;;;;5071237;28;19928;-72
2022/09/15 14:32:13;;;;;;;;;;;17.60;99.90;;;;;;5080799;28;19932;-72
2022/09/15 14:34:45;;;;;;;;;;;17.50;99.90;;;;;;5067296;28;19978;-72
2022/09/15 14:37:11;;;;;;;;;;;17.50;99.90;;;;;;5059202;28;19982;-72
2022/09/15 14:39:50;;;;;;;;;;;17.50;99.90;;;;;;5084454;28;19931;-71
2022/09/15 14:42:31;;;;;;;;;;;17.60;99.90;;;;;;5078333;28;19932;-72
2022/09/15 14:45:08;;;;;;;;;;;17.60;99.90;;;;;;5066718;28;19978;-73
2022/09/15 14:47:42;;;;;;;;;;;17.70;99.90;;;;;;5071882;28;20398;-73
2022/09/15 14:50:12;;;;;;;;;;;17.70;99.90;;;;;;5061861;28;19964;-72
2022/09/15 14:52:48;;;;;;;;;;;17.80;99.90;;;;;;5061393;28;19924;-74
2022/09/15 14:55:27;;;;;;;;;;;17.80;99.90;;;;;;5070558;28;19946;-71
2022/09/15 14:58:02;;;;;;;;;;;17.80;99.90;;;;;;5066972;28;20480;-72